Time;durP1;ratioP1;P1;durP2;ratioP2;P2;SDS_P1;SDS_P2;PMS_P1;PMS_P2;Temp;Humidity;BMP_temperature;BMP_pressure;BME280_temperature;BME280_humidity;BME280_pressure;Samples;Min_cycle;Max_cycle;Signal;HPM_P1;HPM_P2
2021/09/04 00:01:11;;;;;;;48.02;26.02;;;;;;;11.09;77.56;100803.78;1745644;82;21119;-77
2021/09/04 00:03:37;;;;;;;53.83;26.62;;;;;;;11.06;77.62;100804.12;1746084;82;21000;-77
2021/09/04 00:06:03;;;;;;;59.93;28.57;;;;;;;11.01;77.67;100806.45;1746091;82;20880;-77
2021/09/04 00:08:29;;;;;;;58.02;27.55;;;;;;;10.98;77.73;100806.26;1746317;82;21028;-77
2021/09/04 00:10:55;;;;;;;57.85;29.25;;;;;;;10.97;77.79;100807.28;1746236;82;21067;-77
2021/09/04 00:13:21;;;;;;;48.17;24.90;;;;;;;10.94;77.82;100808.10;1745741;81;21156;-77
2021/09/04 00:15:47;;;;;;;47.98;23.52;;;;;;;10.92;77.87;100812.75;1746289;82;20908;-77
2021/09/04 00:18:13;;;;;;;52.30;23.75;;;;;;;10.88;77.92;100803.39;1745687;82;21007;-77
2021/09/04 00:20:39;;;;;;;50.75;21.87;;;;;;;10.85;77.97;100807.23;1746354;82;20968;-77
2021/09/04 00:23:05;;;;;;;40.43;20.48;;;;;;;10.81;78.02;100805.88;1745595;82;20915;-77
2021/09/04 00:25:31;;;;;;;42.25;20.12;;;;;;;10.80;78.06;100806.05;1746150;82;20888;-77
2021/09/04 00:27:57;;;;;;;32.40;19.15;;;;;;;10.77;78.09;100809.86;1746094;82;20975;-77
2021/09/04 00:30:23;;;;;;;30.15;18.62;;;;;;;10.75;78.13;100805.69;1745733;82;21115;-77
2021/09/04 00:32:49;;;;;;;28.65;19.02;;;;;;;10.72;78.20;100807.34;1745949;82;21055;-77
2021/09/04 00:35:15;;;;;;;28.65;16.82;;;;;;;10.68;78.24;100801.99;1746194;82;20889;-77
2021/09/04 00:37:41;;;;;;;30.05;17.77;;;;;;;10.66;78.27;100806.66;1746297;82;21138;-77
2021/09/04 00:40:09;;;;;;;25.88;16.60;;;;;;;10.64;78.34;100803.30;1746011;82;21472;-77
2021/09/04 00:42:35;;;;;;;34.18;20.12;;;;;;;10.63;78.38;100804.30;1746207;82;21004;-77
2021/09/04 00:45:01;;;;;;;34.25;19.12;;;;;;;10.61;78.42;100808.97;1745921;82;21070;-77
2021/09/04 00:47:27;;;;;;;31.12;18.95;;;;;;;10.57;78.46;100807.61;1745941;82;21031;-76
2021/09/04 00:49:53;;;;;;;35.10;17.57;;;;;;;10.55;78.51;100805.61;1746109;82;21403;-77
2021/09/04 00:52:19;;;;;;;30.40;17.42;;;;;;;10.51;78.57;100801.94;1745902;82;21468;-77
2021/09/04 00:54:45;;;;;;;34.25;18.75;;;;;;;10.49;78.60;100802.58;1746200;82;21532;-77
2021/09/04 00:57:12;;;;;;;28.85;17.35;;;;;;;10.46;78.64;100804.23;1746064;82;21082;-77
2021/09/04 00:59:38;;;;;;;26.97;16.75;;;;;;;10.45;78.68;100796.37;1746237;82;20987;-77
2021/09/04 01:02:04;;;;;;;28.40;17.37;;;;;;;10.42;78.72;100802.87;1745664;82;20964;-77
2021/09/04 01:04:30;;;;;;;27.82;16.37;;;;;;;10.38;78.75;100796.18;1745797;81;21502;-77
2021/09/04 01:06:56;;;;;;;31.90;19.57;;;;;;;10.36;78.82;100800.84;1745878;82;21012;-77
2021/09/04 01:09:23;;;;;;;35.20;19.55;;;;;;;10.36;78.84;100804.00;1745978;82;21028;-77
2021/09/04 01:11:49;;;;;;;37.70;19.92;;;;;;;10.32;78.90;100792.83;1745927;81;21004;-77
2021/09/04 01:14:15;;;;;;;31.23;17.40;;;;;;;10.31;78.92;100797.81;1745939;82;21207;-77
2021/09/04 01:16:43;;;;;;;27.20;16.10;;;;;;;10.27;78.94;100796.48;1745927;82;21491;-77
2021/09/04 01:19:09;;;;;;;28.02;16.62;;;;;;;10.24;78.99;100802.09;1745791;82;21027;-77
2021/09/04 01:21:35;;;;;;;27.07;17.37;;;;;;;10.21;79.03;100802.42;1746009;82;21010;-77
2021/09/04 01:24:03;;;;;;;31.15;17.32;;;;;;;10.18;79.09;100796.08;1745800;82;21015;-77
2021/09/04 01:26:29;;;;;;;28.80;17.73;;;;;;;10.17;79.13;100793.06;1745884;82;21101;-77
2021/09/04 01:28:58;;;;;;;33.00;19.25;;;;;;;10.15;79.15;100791.55;1746039;82;21489;-77
2021/09/04 01:31:25;;;;;;;28.05;18.15;;;;;;;10.12;79.19;100790.02;1746020;82;21090;-77
2021/09/04 01:33:51;;;;;;;26.55;16.15;;;;;;;10.09;79.21;100795.67;1745891;82;20992;-77
2021/09/04 01:36:36;;;;;;;27.27;16.37;;;;;;;10.06;79.27;100795.98;1746027;82;21014;-77
2021/09/04 01:39:03;;;;;;;35.70;18.40;;;;;;;10.04;79.29;100803.28;1745044;82;21145;-77
2021/09/04 01:41:29;;;;;;;30.77;17.42;;;;;;;10.01;79.32;100795.60;1745963;82;20996;-77
2021/09/04 01:43:56;;;;;;;33.18;18.32;;;;;;;9.99;79.36;100798.94;1746160;82;21035;-77
2021/09/04 01:46:22;;;;;;;32.08;17.27;;;;;;;9.96;79.39;100795.22;1745913;82;21027;-77
2021/09/04 01:48:48;;;;;;;28.55;16.67;;;;;;;9.93;79.42;100800.87;1746131;82;21008;-77
2021/09/04 01:51:14;;;;;;;30.32;16.73;;;;;;;9.89;79.45;100796.84;1746078;82;21146;-77
2021/09/04 01:53:41;;;;;;;36.13;20.08;;;;;;;9.86;79.49;100794.49;1745853;82;21015;-77
2021/09/04 01:56:09;;;;;;;45.80;24.75;;;;;;;9.84;79.51;100782.68;1746036;82;21031;-77
2021/09/04 01:58:35;;;;;;;32.80;18.42;;;;;;;9.83;79.54;100789.48;1745954;82;21059;-77
2021/09/04 02:01:01;;;;;;;27.93;18.30;;;;;;;9.81;79.58;100791.48;1746172;82;20996;-77
2021/09/04 02:03:27;;;;;;;27.95;18.52;;;;;;;9.79;79.60;100792.11;1745694;82;21154;-77
2021/09/04 02:05:53;;;;;;;33.80;18.10;;;;;;;9.75;79.65;100786.75;1745962;82;21038;-77
2021/09/04 02:08:19;;;;;;;36.65;19.73;;;;;;;9.75;79.70;100792.07;1746085;82;20951;-77
2021/09/04 02:10:45;;;;;;;29.98;19.35;;;;;;;9.74;79.73;100796.59;1745437;82;21028;-77
2021/09/04 02:13:11;;;;;;;32.03;19.25;;;;;;;9.71;79.75;100793.40;1746053;81;21432;-77
2021/09/04 02:15:37;;;;;;;36.75;20.40;;;;;;;9.71;79.81;100798.72;1746222;82;21468;-77
2021/09/04 02:18:03;;;;;;;35.15;17.98;;;;;;;9.75;79.84;100790.74;1745303;81;21040;-76
2021/09/04 02:20:29;;;;;;;28.73;17.77;;;;;;;9.77;79.88;100789.62;1745865;82;21042;-77
2021/09/04 02:22:55;;;;;;;33.20;19.30;;;;;;;9.84;79.89;100791.16;1745976;82;21697;-77
2021/09/04 02:25:21;;;;;;;42.13;24.35;;;;;;;9.90;79.92;100783.87;1745711;82;21578;-77
2021/09/04 02:27:47;;;;;;;30.88;19.20;;;;;;;9.95;79.94;100788.25;1746021;82;21741;-77
2021/09/04 02:30:14;;;;;;;37.25;21.68;;;;;;;10.00;79.96;100787.27;1746001;82;21068;-77
2021/09/04 02:32:40;;;;;;;35.25;21.17;;;;;;;10.06;79.98;100785.82;1745642;82;21535;-77
2021/09/04 02:35:06;;;;;;;35.35;20.62;;;;;;;10.10;80.01;100789.33;1746058;82;21110;-77
2021/09/04 02:37:32;;;;;;;37.93;20.70;;;;;;;10.10;80.04;100791.98;1745999;82;21014;-77
2021/09/04 02:39:58;;;;;;;37.08;22.30;;;;;;;10.08;80.08;100797.98;1745931;82;21163;-77
2021/09/04 02:42:24;;;;;;;41.18;23.05;;;;;;;10.05;80.15;100799.63;1745844;82;20984;-77
2021/09/04 02:44:50;;;;;;;42.13;23.25;;;;;;;10.02;80.19;100802.61;1746046;82;21043;-77
2021/09/04 02:47:16;;;;;;;40.73;24.45;;;;;;;10.01;80.24;100795.60;1746069;82;21483;-77
2021/09/04 02:49:42;;;;;;;39.05;23.42;;;;;;;9.99;80.27;100797.60;1745754;82;21008;-78
2021/09/04 02:52:09;;;;;;;71.77;34.20;;;;;;;9.95;80.32;100789.09;1745992;82;22192;-77
2021/09/04 02:54:35;;;;;;;61.63;29.55;;;;;;;9.96;80.37;100797.89;1745882;82;21500;-77
2021/09/04 02:57:01;;;;;;;42.08;25.52;;;;;;;9.96;80.40;100797.89;1745842;82;21015;-77
2021/09/04 02:59:27;;;;;;;35.75;22.37;;;;;;;9.92;80.45;100799.22;1745331;80;20999;-77
2021/09/04 03:01:53;;;;;;;36.48;21.05;;;;;;;9.87;80.48;100798.84;1767866;80;21030;-77
2021/09/04 03:04:19;;;;;;;39.13;22.70;;;;;;;9.84;80.54;100789.83;1783076;80;21140;-77
2021/09/04 03:06:45;;;;;;;32.85;19.48;;;;;;;9.82;80.58;100793.13;1770382;80;21383;-77
2021/09/04 03:09:11;;;;;;;32.65;18.75;;;;;;;9.78;80.60;100789.13;1762078;81;21100;-77
2021/09/04 03:11:37;;;;;;;33.18;17.67;;;;;;;9.75;80.64;100786.75;1776815;80;21058;-77
2021/09/04 03:14:03;;;;;;;29.45;18.80;;;;;;;9.73;80.69;100788.74;1769645;80;21000;-77
2021/09/04 03:16:29;;;;;;;29.10;19.45;;;;;;;9.70;80.73;100785.90;1780447;80;21547;-77
2021/09/04 03:18:55;;;;;;;31.48;18.65;;;;;;;9.68;80.78;100793.19;1790209;80;21089;-77
2021/09/04 03:21:21;;;;;;;33.25;19.50;;;;;;;9.66;80.81;100796.52;1790883;80;21042;-77
2021/09/04 03:23:47;;;;;;;31.87;20.05;;;;;;;9.62;80.86;100795.15;1790649;80;21043;-77
2021/09/04 03:26:13;;;;;;;33.90;21.55;;;;;;;9.59;80.89;100787.96;1791088;80;22257;-77
2021/09/04 03:28:39;;;;;;;38.20;20.60;;;;;;;9.57;80.90;100799.27;1790706;80;21763;-77
2021/09/04 03:31:05;;;;;;;36.33;20.75;;;;;;;9.53;80.94;100798.22;1790593;80;21034;-77
2021/09/04 03:33:31;;;;;;;34.80;20.43;;;;;;;9.48;80.98;100791.21;1790791;80;20994;-77
2021/09/04 03:35:57;;;;;;;35.40;20.10;;;;;;;9.47;81.00;100792.19;1790639;80;20966;-77
2021/09/04 03:38:23;;;;;;;32.17;19.45;;;;;;;9.45;80.99;100798.17;1791025;80;21002;-77
2021/09/04 03:40:49;;;;;;;32.63;19.92;;;;;;;9.40;81.04;100798.27;1791000;80;21140;-77
2021/09/04 03:43:15;;;;;;;30.60;17.80;;;;;;;9.37;81.08;100802.08;1791031;80;21503;-77
2021/09/04 03:45:42;;;;;;;34.90;20.60;;;;;;;9.34;81.11;100801.55;1791197;80;21479;-77
2021/09/04 03:48:07;;;;;;;43.75;21.07;;;;;;;9.31;81.13;100804.52;1791086;80;21031;-77
2021/09/04 03:50:33;;;;;;;65.20;34.73;;;;;;;9.28;81.16;100807.00;1791185;80;20887;-77
2021/09/04 03:52:59;;;;;;;59.93;32.33;;;;;;;9.24;81.19;100804.30;1791081;80;21992;-77
2021/09/04 03:55:25;;;;;;;47.30;27.30;;;;;;;9.22;81.20;100803.59;1790831;80;20987;-77
2021/09/04 03:57:52;;;;;;;38.17;21.10;;;;;;;9.20;81.23;100801.59;1790999;80;21014;-77
2021/09/04 04:00:18;;;;;;;43.17;20.68;;;;;;;9.19;81.25;100803.05;1790877;80;21046;-77
2021/09/04 04:02:45;;;;;;;31.05;19.10;;;;;;;9.16;81.28;100798.88;1790945;80;21510;-77
2021/09/04 04:05:11;;;;;;;37.15;19.40;;;;;;;9.13;81.30;100797.86;1791157;80;21136;-77
2021/09/04 04:07:37;;;;;;;34.40;19.23;;;;;;;9.12;81.31;100796.17;1790868;80;20987;-77
2021/09/04 04:10:04;;;;;;;34.08;19.37;;;;;;;9.12;81.33;100797.50;1790878;80;21045;-77
2021/09/04 04:12:31;;;;;;;28.47;17.80;;;;;;;9.09;81.33;100797.81;1790823;79;20979;-77
2021/09/04 04:14:56;;;;;;;28.95;17.23;;;;;;;9.07;81.37;100799.80;1790906;80;20904;-77
2021/09/04 04:17:22;;;;;;;29.18;17.37;;;;;;;9.07;81.38;100805.12;1790846;80;21542;-77
2021/09/04 04:19:49;;;;;;;31.12;17.65;;;;;;;9.06;81.41;100811.42;1790646;80;20994;-77
2021/09/04 04:22:15;;;;;;;31.52;16.80;;;;;;;9.05;81.42;100812.39;1791065;80;21006;-77
2021/09/04 04:24:41;;;;;;;28.12;17.23;;;;;;;9.04;81.46;100811.55;1790598;80;21049;-77
2021/09/04 04:27:07;;;;;;;27.00;16.48;;;;;;;9.07;81.47;100817.58;1791053;80;20880;-77
2021/09/04 04:29:33;;;;;;;33.13;16.77;;;;;;;9.02;81.49;100812.70;1790417;80;21128;-77
2021/09/04 04:31:59;;;;;;;24.67;17.05;;;;;;;9.12;81.47;100818.79;1790768;80;21065;-77
2021/09/04 04:34:25;;;;;;;28.20;17.23;;;;;;;9.16;81.50;100824.16;1791149;80;21033;-77
2021/09/04 04:36:51;;;;;;;30.80;17.95;;;;;;;9.19;81.51;100825.19;1790699;80;21625;-77
2021/09/04 04:39:17;;;;;;;36.33;17.35;;;;;;;9.20;81.51;100820.22;1791089;80;21033;-77
2021/09/04 04:41:43;;;;;;;29.35;18.07;;;;;;;9.26;81.56;100814.77;1790523;80;21892;-77
2021/09/04 04:44:09;;;;;;;34.08;18.20;;;;;;;9.59;81.72;100822.58;1791331;80;21651;-77
2021/09/04 04:46:35;;;;;;;34.00;21.30;;;;;;;10.23;81.83;100816.44;1790324;80;21699;-77
2021/09/04 04:49:01;;;;;;;48.45;20.88;;;;;;;10.83;81.79;100813.73;1790976;80;20950;-77
2021/09/04 04:51:27;;;;;;;35.28;18.70;;;;;;;11.42;81.64;100818.88;1790948;80;20990;-77
2021/09/04 04:53:53;;;;;;;29.63;16.95;;;;;;;12.04;81.51;100816.56;1790955;80;21170;-78
2021/09/04 04:56:19;;;;;;;32.58;15.50;;;;;;;12.59;81.35;100821.13;1790973;80;20879;-78
2021/09/04 04:58:45;;;;;;;27.82;15.32;;;;;;;13.15;81.10;100820.06;1790907;80;21038;-77
2021/09/04 05:01:11;;;;;;;21.80;16.20;;;;;;;13.50;80.89;100821.68;1791069;80;21061;-78
2021/09/04 05:03:37;;;;;;;24.37;16.02;;;;;;;14.02;80.69;100823.59;1790814;80;21038;-78
2021/09/04 05:06:04;;;;;;;31.55;18.52;;;;;;;14.43;80.43;100820.84;1788191;80;21287;-78
2021/09/04 05:08:30;;;;;;;34.48;21.07;;;;;;;14.84;80.04;100823.91;1758547;81;20995;-78
2021/09/04 05:10:56;;;;;;;25.92;16.52;;;;;;;15.24;79.61;100822.50;1730890;83;21055;-78
2021/09/04 05:13:22;;;;;;;29.82;17.77;;;;;;;15.60;79.21;100818.98;1710025;81;21523;-78
2021/09/04 05:15:48;;;;;;;73.25;39.45;;;;;;;15.89;78.69;100789.26;1722824;83;21534;-78
2021/09/04 05:18:14;;;;;;;48.17;28.90;;;;;;;16.76;77.54;100815.20;1727668;82;21177;-78
2021/09/04 05:20:43;;;;;;;38.15;24.95;;;;;;;16.76;77.54;100815.20;1725133;83;20958;-78
2021/09/04 05:23:08;;;;;;;62.88;37.63;;;;;;;16.93;76.83;100790.93;1725321;83;21868;-78
2021/09/04 05:25:34;;;;;;;69.95;40.90;;;;;;;17.05;75.80;100810.89;1728304;83;21933;-78
2021/09/04 05:28:00;;;;;;;61.42;36.77;;;;;;;16.81;75.39;100814.11;1728114;83;21030;-78
2021/09/04 05:30:26;;;;;;;53.85;30.37;;;;;;;16.53;75.30;100810.61;1725807;83;21156;-78
2021/09/04 05:32:52;;;;;;;38.95;23.60;;;;;;;16.35;75.37;100813.30;1713255;81;21054;-78
2021/09/04 05:35:18;;;;;;;30.90;19.77;;;;;;;16.37;75.37;100813.92;1722172;82;21036;-78
2021/09/04 05:37:44;;;;;;;33.90;20.05;;;;;;;16.39;75.27;100811.89;1727283;82;20892;-78
2021/09/04 05:40:10;;;;;;;32.05;19.55;;;;;;;16.49;75.15;100820.44;1714241;82;21001;-78
2021/09/04 05:42:37;;;;;;;36.05;21.00;;;;;;;16.62;75.03;100821.55;1722703;83;21877;-78
2021/09/04 05:45:07;;;;;;;28.50;20.72;;;;;;;16.65;74.85;100819.81;1717954;82;20886;-78
2021/09/04 05:47:33;;;;;;;27.45;19.10;;;;;;;16.73;74.63;100823.69;1719500;82;21084;-78
2021/09/04 05:50:00;;;;;;;31.62;21.05;;;;;;;16.82;74.41;100821.14;1717298;82;20950;-78
2021/09/04 05:52:26;;;;;;;30.20;19.75;;;;;;;16.91;74.24;100818.60;1724937;82;21028;-78
2021/09/04 05:54:52;;;;;;;29.32;19.20;;;;;;;16.94;74.08;100809.60;1720242;83;21176;-78
2021/09/04 05:57:18;;;;;;;27.07;18.80;;;;;;;16.81;73.88;100814.94;1715178;83;20980;-78
2021/09/04 05:59:44;;;;;;;30.97;19.65;;;;;;;16.70;73.73;100817.36;1721312;83;21500;-79
2021/09/04 06:02:10;;;;;;;32.28;18.42;;;;;;;16.67;73.71;100815.07;1685758;83;21580;-79
2021/09/04 06:04:36;;;;;;;25.48;18.77;;;;;;;16.79;73.65;100813.45;1697438;83;21003;-78
2021/09/04 06:07:03;;;;;;;28.20;17.98;;;;;;;16.94;73.38;100819.03;1680012;83;21303;-78
2021/09/04 06:09:29;;;;;;;27.32;19.17;;;;;;;17.04;73.19;100817.30;1700175;83;21121;-78
2021/09/04 06:11:55;;;;;;;27.20;18.67;;;;;;;17.18;73.05;100814.97;1696001;83;20931;-78
2021/09/04 06:14:21;;;;;;;28.10;18.65;;;;;;;17.32;72.83;100815.31;1696519;83;21419;-78
2021/09/04 06:16:47;;;;;;;27.93;17.62;;;;;;;17.27;72.69;100812.42;1701197;83;21129;-78
2021/09/04 06:19:14;;;;;;;26.05;16.70;;;;;;;17.27;72.59;100815.12;1682723;84;21143;-78
2021/09/04 06:21:40;;;;;;;25.68;17.85;;;;;;;17.37;72.41;100820.95;1717409;83;21027;-78
2021/09/04 06:24:06;;;;;;;27.77;17.75;;;;;;;17.43;72.23;100820.13;1716954;83;21081;-78
2021/09/04 06:26:32;;;;;;;24.10;17.42;;;;;;;17.59;72.04;100816.77;1714924;83;21514;-78
2021/09/04 06:28:58;;;;;;;29.18;17.37;;;;;;;17.69;71.83;100813.98;1711697;83;21506;-79
2021/09/04 06:31:24;;;;;;;26.52;16.12;;;;;;;17.78;71.71;100823.52;1717752;83;21135;-78
2021/09/04 06:33:50;;;;;;;24.75;16.23;;;;;;;17.87;71.48;100825.52;1713118;83;21513;-78
2021/09/04 06:36:16;;;;;;;25.10;15.48;;;;;;;17.87;71.33;100824.16;1719877;83;22268;-78
2021/09/04 06:38:43;;;;;;;25.02;15.88;;;;;;;17.88;71.25;100825.80;1716924;83;21098;-78
2021/09/04 06:41:09;;;;;;;29.52;21.12;;;;;;;17.98;71.13;100828.91;1710492;83;21117;-78
2021/09/04 06:43:36;;;;;;;32.20;20.80;;;;;;;18.04;70.83;100835.38;1717319;83;21551;-78
2021/09/04 06:46:02;;;;;;;26.90;18.42;;;;;;;17.80;70.54;100831.42;1689065;83;21024;-78
2021/09/04 06:48:28;;;;;;;24.60;16.77;;;;;;;17.69;70.58;100838.77;1717471;83;21059;-78
2021/09/04 06:50:54;;;;;;;27.37;17.20;;;;;;;17.82;70.53;100837.43;1715370;83;21000;-77
2021/09/04 06:53:20;;;;;;;25.40;17.37;;;;;;;17.92;70.32;100833.80;1718370;83;20943;-77
2021/09/04 06:55:46;;;;;;;25.70;16.70;;;;;;;17.96;70.21;100836.41;1718997;83;21017;-77
2021/09/04 06:58:12;;;;;;;22.75;16.12;;;;;;;18.01;70.08;100835.79;1718913;83;22071;-77
2021/09/04 07:00:38;;;;;;;26.70;15.85;;;;;;;18.01;69.92;100833.09;1712068;83;21062;-78
2021/09/04 07:03:04;;;;;;;23.02;15.28;;;;;;;18.17;69.87;100835.36;1718441;83;21017;-78
2021/09/04 07:05:30;;;;;;;25.90;15.13;;;;;;;18.20;69.66;100829.02;1716535;83;21083;-78
2021/09/04 07:07:56;;;;;;;33.70;16.27;;;;;;;18.30;69.62;100840.73;1716386;83;21094;-77
2021/09/04 07:10:22;;;;;;;35.90;16.35;;;;;;;18.30;69.45;100841.58;1718940;83;21053;-78
2021/09/04 07:12:48;;;;;;;26.25;15.35;;;;;;;18.35;69.31;100841.79;1717283;83;21048;-78
2021/09/04 07:15:15;;;;;;;24.18;16.95;;;;;;;18.41;69.25;100842.30;1717809;83;20912;-78
2021/09/04 07:17:41;;;;;;;22.22;15.83;;;;;;;18.43;69.08;100838.88;1717240;83;21038;-77
2021/09/04 07:20:09;;;;;;;22.87;15.65;;;;;;;18.51;68.94;100843.78;1686528;83;21568;-75
2021/09/04 07:22:35;;;;;;;20.20;14.70;;;;;;;18.38;68.78;100844.58;1702639;83;21062;-76
2021/09/04 07:25:01;;;;;;;20.15;14.05;;;;;;;18.32;68.75;100846.27;1691681;83;21544;-76
2021/09/04 07:27:27;;;;;;;22.87;14.30;;;;;;;18.32;68.69;100853.02;1689601;83;21118;-76
2021/09/04 07:29:53;;;;;;;22.20;13.58;;;;;;;18.26;68.55;100851.13;1688854;83;21747;-76
2021/09/04 07:32:19;;;;;;;23.40;14.53;;;;;;;18.39;68.42;100853.84;1691930;83;21114;-76
2021/09/04 07:34:45;;;;;;;22.80;13.80;;;;;;;18.45;68.31;100848.94;1701378;83;21040;-78
2021/09/04 07:37:11;;;;;;;22.98;15.03;;;;;;;18.69;68.13;100845.27;1695138;83;21003;-78
2021/09/04 07:39:37;;;;;;;19.17;11.18;;;;;;;18.76;68.10;100851.49;1689757;83;21017;-78
2021/09/04 07:42:03;;;;;;;19.10;11.75;;;;;;;18.78;67.89;100847.56;1697947;83;21130;-78
2021/09/04 07:44:29;;;;;;;14.80;11.10;;;;;;;18.76;67.63;100846.92;1688061;83;21172;-78
2021/09/04 07:46:55;;;;;;;16.95;9.95;;;;;;;18.80;67.43;100855.44;1692548;83;21038;-78
2021/09/04 07:49:21;;;;;;;14.80;9.38;;;;;;;18.88;67.27;100848.45;1693167;83;21108;-77
2021/09/04 07:51:48;;;;;;;14.33;9.55;;;;;;;19.19;67.12;100852.59;1685878;83;20968;-77
2021/09/04 07:54:14;;;;;;;16.12;10.90;;;;;;;19.30;66.81;100848.38;1703027;83;21570;-77
2021/09/04 07:56:40;;;;;;;19.65;10.58;;;;;;;19.41;66.58;100846.38;1695114;83;21875;-77
2021/09/04 07:59:06;;;;;;;25.12;11.40;;;;;;;19.44;66.32;100852.19;1692738;83;21091;-77
2021/09/04 08:01:34;;;;;;;16.25;10.25;;;;;;;19.52;66.13;100854.34;1690088;83;21055;-77
2021/09/04 08:04:00;;;;;;;16.70;11.03;;;;;;;19.69;65.84;100859.53;1702951;83;21022;-78
2021/09/04 08:06:26;;;;;;;20.12;11.48;;;;;;;19.84;65.64;100860.87;1702603;83;21025;-77
2021/09/04 08:08:52;;;;;;;17.95;10.28;;;;;;;19.95;65.30;100855.27;1710691;83;21307;-77
2021/09/04 08:11:19;;;;;;;17.98;10.72;;;;;;;19.98;65.14;100857.56;1698241;83;21099;-77
2021/09/04 08:13:45;;;;;;;17.12;9.53;;;;;;;20.04;64.87;100862.09;1691277;83;21576;-77
2021/09/04 08:16:11;;;;;;;21.02;12.73;;;;;;;20.11;64.56;100867.45;1681590;83;21115;-77
2021/09/04 08:18:37;;;;;;;16.82;9.05;;;;;;;19.98;64.35;100870.27;1701787;83;21066;-78
2021/09/04 08:21:05;;;;;;;13.70;8.35;;;;;;;19.91;64.02;100867.61;1691826;83;21320;-78
2021/09/04 08:23:31;;;;;;;13.20;8.63;;;;;;;19.86;63.81;100872.84;1692961;83;21121;-78
2021/09/04 08:25:57;;;;;;;13.35;7.25;;;;;;;19.76;63.49;100872.50;1684485;83;20999;-77
2021/09/04 08:28:23;;;;;;;18.37;7.80;;;;;;;19.72;63.24;100868.05;1694158;83;21054;-77
2021/09/04 08:30:49;;;;;;;12.63;7.85;;;;;;;19.94;62.98;100868.53;1700021;83;21021;-78
2021/09/04 08:33:15;;;;;;;12.50;8.23;;;;;;;19.91;62.80;100870.32;1691928;83;22156;-77
2021/09/04 08:35:41;;;;;;;11.88;7.78;;;;;;;20.11;62.54;100870.99;1689989;83;21018;-77
2021/09/04 08:38:07;;;;;;;13.85;7.97;;;;;;;20.31;62.20;100869.48;1693422;83;21066;-77
2021/09/04 08:40:41;;;;;;;11.63;7.35;;;;;;;20.19;61.88;100865.31;1691334;83;21065;-77
2021/09/04 08:43:07;;;;;;;16.42;8.63;;;;;;;20.20;61.73;100869.66;1696862;83;21107;-77
2021/09/04 08:45:33;;;;;;;16.05;7.92;;;;;;;20.20;61.52;100867.47;1685237;83;21450;-77
2021/09/04 08:48:00;;;;;;;15.60;8.58;;;;;;;20.39;61.45;100870.05;1689508;83;21495;-77
2021/09/04 08:50:27;;;;;;;16.62;8.15;;;;;;;20.59;61.17;100875.27;1698920;83;21065;-78
2021/09/04 08:52:53;;;;;;;17.57;8.18;;;;;;;20.69;60.93;100871.52;1699533;83;21632;-78
2021/09/04 08:55:20;;;;;;;13.08;7.72;;;;;;;20.73;60.69;100871.89;1697628;83;21105;-78
2021/09/04 08:57:46;;;;;;;14.45;7.65;;;;;;;20.81;60.37;100867.54;1678083;83;21659;-77
2021/09/04 09:00:13;;;;;;;10.53;7.00;;;;;;;20.84;60.03;100872.51;1688569;83;21030;-78
2021/09/04 09:02:44;;;;;;;13.50;8.48;;;;;;;20.92;59.78;100866.80;1692833;83;20973;-78
2021/09/04 09:05:11;;;;;;;11.93;8.65;;;;;;;20.78;59.35;100864.77;1679143;83;21039;-78
2021/09/04 09:07:41;;;;;;;13.65;8.80;;;;;;;20.46;59.14;100866.44;1692995;83;21059;-77
2021/09/04 09:10:28;;;;;;;16.57;9.08;;;;;;;20.34;59.16;100862.27;1712207;83;21592;-77
2021/09/04 09:12:54;;;;;;;16.50;10.00;;;;;;;20.44;59.23;100856.64;1710822;81;21028;-78
2021/09/04 09:15:23;;;;;;;15.80;9.73;;;;;;;20.75;59.07;100861.67;1712507;81;21446;-77
2021/09/04 09:18:10;;;;;;;16.12;9.00;;;;;;;21.04;58.96;100856.03;1713407;81;21012;-77
2021/09/04 09:20:37;;;;;;;14.18;8.18;;;;;;;21.18;58.55;100855.64;1712521;83;21404;-78
2021/09/04 09:23:12;;;;;;;13.60;8.18;;;;;;;21.08;58.45;100863.45;1713927;83;21553;-78
2021/09/04 09:25:40;;;;;;;18.57;9.65;;;;;;;20.87;58.07;100869.34;1713806;83;21489;-78
2021/09/04 09:28:13;;;;;;;13.20;8.23;;;;;;;20.62;58.01;100869.95;1716351;82;21493;-77
2021/09/04 09:30:42;;;;;;;14.07;8.95;;;;;;;20.13;57.92;100873.46;1712550;81;21017;-78
2021/09/04 09:33:10;;;;;;;20.70;9.20;;;;;;;20.07;58.10;100875.19;1715509;83;21560;-78
2021/09/04 09:35:43;;;;;;;15.60;9.63;;;;;;;20.01;58.13;100870.66;1711993;81;21424;-78
2021/09/04 09:38:11;;;;;;;12.18;8.50;;;;;;;20.20;58.20;100875.07;1719779;83;21320;-77
2021/09/04 09:40:38;;;;;;;14.87;8.40;;;;;;;20.26;57.96;100878.27;1708180;83;21037;-77
2021/09/04 09:43:16;;;;;;;13.08;8.73;;;;;;;20.18;57.89;100878.54;1715770;83;21034;-77
2021/09/04 09:45:49;;;;;;;14.38;9.50;;;;;;;20.05;57.87;100878.66;1714629;83;21110;-77
2021/09/04 09:48:26;;;;;;;16.25;9.70;;;;;;;20.12;57.87;100879.95;1719656;83;21045;-77
2021/09/04 09:50:53;;;;;;;15.03;8.48;;;;;;;20.22;57.83;100879.77;1715712;83;21024;-79
2021/09/04 09:53:20;;;;;;;22.30;9.88;;;;;;;20.53;57.75;100880.76;1704761;83;21042;-79
2021/09/04 09:55:48;;;;;;;16.93;10.03;;;;;;;20.61;57.56;100877.77;1726065;83;21002;-78
2021/09/04 09:58:15;;;;;;;12.50;8.80;;;;;;;20.85;57.43;100877.72;1713716;83;21055;-79
2021/09/04 10:00:42;;;;;;;18.37;8.80;;;;;;;21.08;57.30;100874.31;1713253;83;21629;-78
2021/09/04 10:03:10;;;;;;;12.60;9.48;;;;;;;21.02;57.19;100867.09;1691858;84;21399;-79
2021/09/04 10:05:37;;;;;;;14.37;9.23;;;;;;;20.97;57.08;100875.62;1699500;84;21362;-79
2021/09/04 10:08:03;;;;;;;18.07;9.10;;;;;;;21.02;57.05;100875.23;1697300;83;22002;-79
2021/09/04 10:10:32;;;;;;;16.50;9.70;;;;;;;21.02;56.88;100868.45;1707846;83;21473;-79
2021/09/04 10:12:58;;;;;;;15.05;8.63;;;;;;;20.97;56.77;100870.99;1712529;82;21636;-79
2021/09/04 10:15:28;;;;;;;15.43;9.30;;;;;;;20.83;56.58;100883.04;1697885;83;21538;-79
2021/09/04 10:17:56;;;;;;;13.90;8.23;;;;;;;20.63;56.42;100875.65;1701689;83;21038;-78
2021/09/04 10:20:25;;;;;;;11.53;8.43;;;;;;;20.33;56.34;100874.18;1705432;82;21519;-79
2021/09/04 10:22:52;;;;;;;14.07;8.43;;;;;;;20.42;56.38;100881.80;1698180;84;21038;-78
2021/09/04 10:25:19;;;;;;;13.50;8.23;;;;;;;20.42;56.17;100875.54;1698437;83;22117;-79
2021/09/04 10:27:47;;;;;;;14.75;8.50;;;;;;;20.34;56.05;100874.46;1707161;83;21031;-78
2021/09/04 10:30:35;;;;;;;11.25;7.58;;;;;;;20.30;56.08;100875.42;1734186;82;21050;-78
2021/09/04 10:33:11;;;;;;;18.30;8.18;;;;;;;20.16;56.06;100872.50;1704426;83;21621;-78
2021/09/04 10:35:53;;;;;;;15.68;8.58;;;;;;;19.92;56.04;100870.60;1721975;83;21511;-78
2021/09/04 10:38:23;;;;;;;18.20;9.10;;;;;;;19.91;56.17;100877.09;1721694;83;21531;-78
2021/09/04 10:40:53;;;;;;;11.90;8.60;;;;;;;19.95;56.07;100872.87;1721717;83;21009;-78
2021/09/04 10:43:20;;;;;;;15.32;8.88;;;;;;;19.86;56.02;100875.03;1692480;83;21055;-78
2021/09/04 10:45:48;;;;;;;11.15;8.20;;;;;;;19.77;56.01;100876.88;1693276;83;21568;-78
2021/09/04 10:48:24;;;;;;;19.10;9.45;;;;;;;19.71;56.01;100869.60;1721546;83;21544;-78
2021/09/04 10:51:08;;;;;;;16.02;8.78;;;;;;;19.94;56.17;100876.64;1693671;83;21912;-78
2021/09/04 10:53:50;;;;;;;11.90;8.45;;;;;;;20.23;56.15;100880.04;1721814;83;21083;-78
2021/09/04 10:56:23;;;;;;;17.37;11.48;;;;;;;20.29;55.92;100876.50;1721637;83;21035;-78
2021/09/04 10:58:52;;;;;;;17.82;9.50;;;;;;;20.14;55.83;100880.02;1721905;83;21579;-78
2021/09/04 11:01:30;;;;;;;16.57;8.83;;;;;;;20.09;55.82;100876.34;1721832;83;21007;-78
2021/09/04 11:03:56;;;;;;;12.78;8.75;;;;;;;20.30;56.00;100882.20;1717677;83;21193;-78
2021/09/04 11:06:23;;;;;;;15.80;9.55;;;;;;;20.57;55.89;100880.09;1721659;83;21019;-78
2021/09/04 11:08:50;;;;;;;13.32;9.25;;;;;;;20.60;55.68;100876.10;1721910;83;21586;-78
2021/09/04 11:11:28;;;;;;;16.45;9.08;;;;;;;20.40;55.64;100872.23;1721810;83;21043;-78
2021/09/04 11:13:59;;;;;;;12.63;8.93;;;;;;;20.25;55.57;100869.83;1721725;83;21070;-78